Terminal Aerodrome Forecast
Issued by NWS

Home | Current Version | Previous Version | Text Only | Print | Product List | Glossary On
Versions: 1 2 3 4 5 6 7 8 9 10 11 12
000
FTUS45 KABQ 262300
TAFFMN
TAF
KFMN 262333Z 2700/2724 28005KT P6SM BKN250
     FM270300 10008KT P6SM SCT150
     FM270800 10009KT P6SM BKN100 OVC150
     FM271300 10007KT P6SM BKN070 OVC100=

USA.gov is the U.S. government's official web portal to all federal, state and local government web resources and services.